createdAt,value
2022-11-05T05:31:07.876Z,1001.74
2022-11-05T05:32:07.805Z,1001.64
2022-11-05T05:33:07.726Z,1001.70
2022-11-05T05:34:07.704Z,1001.73
2022-11-05T05:35:07.679Z,1001.69
2022-11-05T05:36:11.308Z,1001.67
2022-11-05T05:37:07.660Z,1001.71
2022-11-05T05:39:34.953Z,1001.73
2022-11-05T05:42:23.803Z,1001.72
2022-11-05T05:43:33.343Z,1001.79
2022-11-05T05:44:23.744Z,1001.76
2022-11-05T05:45:23.844Z,1001.79
2022-11-05T05:46:23.790Z,1001.81
2022-11-05T05:47:23.746Z,1001.74
2022-11-05T05:48:23.716Z,1001.72
2022-11-05T05:50:33.956Z,1001.79
2022-11-05T05:51:33.946Z,1001.75
2022-11-05T05:55:24.754Z,1001.86
2022-11-05T05:56:24.671Z,1001.86
2022-11-05T05:57:32.321Z,1001.85
2022-11-05T05:58:24.700Z,1001.79
2022-11-05T05:59:24.669Z,1001.86
2022-11-05T06:00:24.674Z,1001.87
2022-11-05T06:01:24.697Z,1001.85
2022-11-05T06:02:24.787Z,1001.86
2022-11-05T06:03:24.618Z,1001.86
2022-11-05T06:04:24.605Z,1001.86
2022-11-05T06:05:24.559Z,1001.82
2022-11-05T06:06:24.545Z,1001.89
2022-11-05T06:07:37.196Z,1001.89
2022-11-05T06:09:57.077Z,1001.92
2022-11-05T06:11:04.977Z,1001.94
2022-11-05T06:11:57.031Z,1001.97
2022-11-05T06:12:57.006Z,1001.97
2022-11-05T06:17:36.174Z,1002.02
2022-11-05T06:18:36.078Z,1001.95
2022-11-05T06:19:36.119Z,1001.98
2022-11-05T06:20:36.072Z,1001.99
2022-11-05T06:21:36.038Z,1001.99
2022-11-05T06:22:36.039Z,1001.99
2022-11-05T06:23:36.018Z,1002.01
2022-11-05T06:24:35.978Z,1002.04
2022-11-05T06:25:40.900Z,1002.05
2022-11-05T06:26:36.945Z,1002.02
2022-11-05T06:27:35.924Z,1002.08
2022-11-05T06:28:35.908Z,1002.07
2022-11-05T06:29:35.894Z,1002.07
2022-11-05T06:30:35.882Z,1002.15
2022-11-05T06:31:35.879Z,1002.07
2022-11-05T06:32:35.853Z,1002.08
2022-11-05T06:33:35.889Z,1002.08
2022-11-05T06:34:35.838Z,1002.10
2022-11-05T06:35:35.887Z,1002.14
2022-11-05T06:36:35.807Z,1002.12
2022-11-05T06:37:35.844Z,1002.10
2022-11-05T06:38:35.790Z,1002.13
2022-11-05T06:39:35.780Z,1002.14
2022-11-05T06:40:35.796Z,1002.17
2022-11-05T06:41:56.952Z,1002.18
2022-11-05T06:44:37.875Z,1002.23
2022-11-05T06:45:37.871Z,1002.23
2022-11-05T06:46:37.829Z,1002.24
2022-11-05T06:47:37.940Z,1002.28
2022-11-05T06:48:37.751Z,1002.26
2022-11-05T06:52:16.898Z,1002.46
2022-11-05T06:53:16.879Z,1002.47
2022-11-05T06:54:16.862Z,1002.49
2022-11-05T06:55:16.878Z,1002.45
2022-11-05T06:56:16.803Z,1002.48
2022-11-05T06:57:16.831Z,1002.49
2022-11-05T06:58:16.798Z,1002.52
2022-11-05T06:59:16.847Z,1002.50
2022-11-05T07:00:16.798Z,1002.50
2022-11-05T07:01:16.918Z,1002.44
2022-11-05T07:02:16.843Z,1002.48
2022-11-05T07:03:16.722Z,1002.49
2022-11-05T07:04:16.812Z,1002.50
2022-11-05T07:05:16.734Z,1002.58
2022-11-05T07:06:16.754Z,1002.56
2022-11-05T07:07:16.740Z,1002.56
2022-11-05T07:08:16.684Z,1002.63
2022-11-05T07:09:16.680Z,1002.62
2022-11-05T07:10:16.706Z,1002.63
2022-11-05T07:11:16.655Z,1002.66
2022-11-05T07:12:16.623Z,1002.70
2022-11-05T07:13:16.996Z,1002.72
2022-11-05T07:14:16.622Z,1002.73
2022-11-05T07:15:16.620Z,1002.72
2022-11-05T07:16:16.593Z,1002.74
2022-11-05T07:17:16.574Z,1002.77
2022-11-05T07:18:16.568Z,1002.79
2022-11-05T07:19:16.547Z,1002.80
2022-11-05T07:20:16.643Z,1002.77
2022-11-05T07:21:16.528Z,1002.78
2022-11-05T07:22:16.523Z,1002.81
2022-11-05T07:23:16.519Z,1002.76
2022-11-05T07:24:16.493Z,1002.77
2022-11-05T07:25:16.478Z,1002.80
2022-11-05T07:26:16.547Z,1002.77
2022-11-05T07:27:16.459Z,1002.81
2022-11-05T07:28:16.470Z,1002.76
2022-11-05T07:29:16.435Z,1002.80
2022-11-05T07:30:16.438Z,1002.78
2022-11-05T07:31:16.429Z,1002.82
2022-11-05T07:32:16.433Z,1002.84
2022-11-05T07:33:16.394Z,1002.79
2022-11-05T07:34:16.380Z,1002.86
2022-11-05T07:35:16.372Z,1002.84
2022-11-05T07:36:16.371Z,1002.84
2022-11-05T07:37:16.356Z,1002.86
2022-11-05T07:38:16.397Z,1002.87
2022-11-05T07:39:16.331Z,1002.87
2022-11-05T07:40:16.316Z,1002.85
2022-11-05T07:41:16.311Z,1002.85
2022-11-05T07:42:16.328Z,1002.87
2022-11-05T07:43:16.308Z,1002.92
2022-11-05T07:44:16.274Z,1002.91
2022-11-05T07:45:24.237Z,1002.93
2022-11-05T07:46:16.304Z,1002.95
2022-11-05T07:47:16.277Z,1002.94
2022-11-05T07:48:16.311Z,1002.98
2022-11-05T07:49:16.243Z,1002.99
2022-11-05T07:50:16.222Z,1002.93
2022-11-05T07:51:16.225Z,1002.93
2022-11-05T07:52:16.218Z,1002.95
2022-11-05T07:53:16.188Z,1002.94
2022-11-05T07:54:16.188Z,1002.98
2022-11-05T07:55:16.165Z,1002.98
2022-11-05T07:56:16.163Z,1003.01
2022-11-05T07:57:16.169Z,1003.03
2022-11-05T07:58:16.142Z,1003.05
2022-11-05T07:59:16.122Z,1003.04
2022-11-05T08:00:16.109Z,1003.07
2022-11-05T08:01:16.274Z,1003.10
2022-11-05T08:02:16.342Z,1003.07
2022-11-05T08:03:16.606Z,1003.10
2022-11-05T08:04:16.063Z,1003.09
2022-11-05T08:05:16.128Z,1003.10
2022-11-05T08:06:16.070Z,1003.14
2022-11-05T08:07:16.039Z,1003.21
2022-11-05T08:08:16.030Z,1003.19
2022-11-05T08:09:16.037Z,1003.16
2022-11-05T08:10:15.999Z,1003.17
2022-11-05T08:11:16.056Z,1003.15
2022-11-05T08:12:15.975Z,1003.18
2022-11-05T08:13:16.246Z,1003.18
2022-11-05T08:14:15.993Z,1003.19
2022-11-05T08:15:15.945Z,1003.23
2022-11-05T08:16:15.980Z,1003.26
2022-11-05T08:17:18.424Z,1003.26
2022-11-05T08:18:15.923Z,1003.29
2022-11-05T08:19:15.915Z,1003.24
2022-11-05T08:20:15.920Z,1003.28
2022-11-05T08:21:15.910Z,1003.24
2022-11-05T08:22:15.866Z,1003.24
2022-11-05T08:23:16.190Z,1003.28
2022-11-05T08:24:15.855Z,1003.26
2022-11-05T08:25:15.852Z,1003.27
2022-11-05T08:26:15.858Z,1003.29
2022-11-05T08:27:15.825Z,1003.27
2022-11-05T08:28:15.835Z,1003.28
2022-11-05T08:29:15.793Z,1003.24
2022-11-05T08:30:15.795Z,1003.25
2022-11-05T08:31:15.769Z,1003.27
2022-11-05T08:32:15.798Z,1003.28
2022-11-05T08:33:16.021Z,1003.29
2022-11-05T08:34:15.730Z,1003.21
2022-11-05T08:35:15.734Z,1003.25
2022-11-05T08:36:15.714Z,1003.29
2022-11-05T08:37:15.728Z,1003.29
2022-11-05T08:38:15.710Z,1003.30
2022-11-05T08:39:17.115Z,1003.28
2022-11-05T08:40:15.708Z,1003.30
2022-11-05T08:41:15.684Z,1003.29
2022-11-05T08:42:15.662Z,1003.29
2022-11-05T08:43:15.658Z,1003.30
2022-11-05T08:44:15.647Z,1003.33
2022-11-05T08:45:15.615Z,1003.29
2022-11-05T08:46:15.601Z,1003.31
2022-11-05T08:47:15.593Z,1003.31
2022-11-05T08:48:15.629Z,1003.30
2022-11-05T08:49:15.586Z,1003.31
2022-11-05T08:50:15.588Z,1003.35
2022-11-05T08:51:15.588Z,1003.30
2022-11-05T08:52:15.582Z,1003.33
2022-11-05T08:53:15.839Z,1003.34
2022-11-05T08:54:15.523Z,1003.37
2022-11-05T08:55:15.522Z,1003.37
2022-11-05T08:56:15.557Z,1003.39
2022-11-05T08:57:15.490Z,1003.40
2022-11-05T08:58:15.520Z,1003.43
2022-11-05T08:59:15.507Z,1003.43
2022-11-05T09:00:15.650Z,1003.41
2022-11-05T09:01:15.529Z,1003.39
2022-11-05T09:02:15.583Z,1003.38
2022-11-05T09:03:15.730Z,1003.38
2022-11-05T09:04:15.453Z,1003.34
2022-11-05T09:05:15.459Z,1003.31
2022-11-05T09:06:15.389Z,1003.32
2022-11-05T09:07:15.410Z,1003.31
2022-11-05T09:08:15.372Z,1003.31
2022-11-05T09:09:15.364Z,1003.32
2022-11-05T09:10:15.446Z,1003.32
2022-11-05T09:11:15.345Z,1003.34
2022-11-05T09:12:15.338Z,1003.33
2022-11-05T09:13:19.381Z,1003.29
2022-11-05T09:14:15.338Z,1003.39
2022-11-05T09:15:15.371Z,1003.38
2022-11-05T09:16:15.345Z,1003.41
2022-11-05T09:17:15.347Z,1003.40
2022-11-05T09:18:15.263Z,1003.40
2022-11-05T09:19:15.270Z,1003.41
2022-11-05T09:20:15.260Z,1003.37
2022-11-05T09:21:15.224Z,1003.37
2022-11-05T09:22:15.236Z,1003.36
2022-11-05T09:23:15.312Z,1003.44
2022-11-05T09:24:15.311Z,1003.38
2022-11-05T09:25:15.219Z,1003.38
2022-11-05T09:26:15.194Z,1003.36
2022-11-05T09:27:15.189Z,1003.37
2022-11-05T09:28:17.113Z,1003.38
2022-11-05T09:29:15.138Z,1003.37
2022-11-05T09:30:15.202Z,1003.39
2022-11-05T09:31:15.139Z,1003.43
2022-11-05T09:32:15.130Z,1003.38
2022-11-05T09:33:15.165Z,1003.36
2022-11-05T09:34:15.128Z,1003.36
2022-11-05T09:35:15.092Z,1003.38
2022-11-05T09:36:15.128Z,1003.44
2022-11-05T09:37:15.116Z,1003.37
2022-11-05T09:38:15.046Z,1003.43
2022-11-05T09:39:15.081Z,1003.41
2022-11-05T09:40:15.049Z,1003.40
2022-11-05T09:41:15.049Z,1003.39
2022-11-05T09:42:15.017Z,1003.43
2022-11-05T09:43:15.021Z,1003.43
2022-11-05T09:44:14.995Z,1003.44
2022-11-05T09:45:14.996Z,1003.44
2022-11-05T09:46:14.970Z,1003.47
2022-11-05T09:47:14.948Z,1003.42
2022-11-05T09:48:14.939Z,1003.49
2022-11-05T09:49:14.921Z,1003.49
2022-11-05T09:50:14.942Z,1003.49
2022-11-05T09:51:19.266Z,1003.48
2022-11-05T09:52:14.911Z,1003.48
2022-11-05T09:53:14.885Z,1003.49
2022-11-05T09:54:14.919Z,1003.53
2022-11-05T09:55:14.864Z,1003.49
2022-11-05T09:56:14.872Z,1003.56
2022-11-05T09:57:14.867Z,1003.54
2022-11-05T09:58:14.868Z,1003.59
2022-11-05T09:59:14.820Z,1003.59
2022-11-05T10:00:14.914Z,1003.58
2022-11-05T10:01:14.867Z,1003.56
2022-11-05T10:02:14.865Z,1003.57
2022-11-05T10:03:14.892Z,1003.58
2022-11-05T10:04:14.781Z,1003.59
2022-11-05T10:05:14.858Z,1003.55
2022-11-05T10:06:14.740Z,1003.59
2022-11-05T10:07:14.733Z,1003.60
2022-11-05T10:08:14.743Z,1003.55
2022-11-05T10:09:14.706Z,1003.57
2022-11-05T10:10:14.736Z,1003.59
2022-11-05T10:11:14.693Z,1003.58
2022-11-05T10:12:14.716Z,1003.60
2022-11-05T10:13:14.768Z,1003.60
2022-11-05T10:14:14.681Z,1003.62
2022-11-05T10:15:14.655Z,1003.62
2022-11-05T10:16:14.662Z,1003.61
2022-11-05T10:17:14.628Z,1003.63
2022-11-05T10:18:14.660Z,1003.66
2022-11-05T10:19:14.626Z,1003.63
2022-11-05T10:20:14.599Z,1003.64
2022-11-05T10:21:14.623Z,1003.63
2022-11-05T10:22:14.576Z,1003.67
2022-11-05T10:23:14.807Z,1003.71
2022-11-05T10:24:14.571Z,1003.69
2022-11-05T10:25:14.565Z,1003.70
2022-11-05T10:26:14.539Z,1003.72
2022-11-05T10:27:14.519Z,1003.68
2022-11-05T10:28:14.526Z,1003.63
2022-11-05T10:29:14.492Z,1003.69
2022-11-05T10:30:14.523Z,1003.73
2022-11-05T10:31:14.536Z,1003.65
2022-11-05T10:32:14.507Z,1003.67
2022-11-05T10:33:14.622Z,1003.72
2022-11-05T10:34:14.449Z,1003.69
2022-11-05T10:35:14.451Z,1003.73
2022-11-05T10:36:14.439Z,1003.72
2022-11-05T10:37:14.439Z,1003.69
2022-11-05T10:38:14.387Z,1003.72
2022-11-05T10:39:14.434Z,1003.73
2022-11-05T10:40:14.413Z,1003.71
2022-11-05T10:41:14.380Z,1003.73
2022-11-05T10:42:14.378Z,1003.74
2022-11-05T10:43:14.552Z,1003.73
2022-11-05T10:44:18.676Z,1003.73
2022-11-05T10:45:14.353Z,1003.74
2022-11-05T10:46:14.322Z,1003.74
2022-11-05T10:47:14.361Z,1003.74
2022-11-05T10:48:14.325Z,1003.73
2022-11-05T10:49:14.277Z,1003.75
2022-11-05T10:50:14.290Z,1003.76
2022-11-05T10:51:14.246Z,1003.72
2022-11-05T10:52:14.278Z,1003.70
2022-11-05T10:53:14.567Z,1003.68
2022-11-05T10:54:14.250Z,1003.72
2022-11-05T10:55:14.204Z,1003.75
2022-11-05T10:56:14.199Z,1003.76
2022-11-05T10:57:14.190Z,1003.73
2022-11-05T10:58:14.180Z,1003.70
2022-11-05T10:59:14.176Z,1003.72
2022-11-05T11:00:14.162Z,1003.71
2022-11-05T11:01:14.204Z,1003.77
2022-11-05T11:02:14.191Z,1003.73
2022-11-05T11:03:14.299Z,1003.72
2022-11-05T11:04:14.122Z,1003.64
2022-11-05T11:05:14.096Z,1003.65
2022-11-05T11:06:14.093Z,1003.67
2022-11-05T11:07:14.105Z,1003.66
2022-11-05T11:08:14.067Z,1003.70
2022-11-05T11:09:14.072Z,1003.65
2022-11-05T11:10:14.076Z,1003.69
2022-11-05T11:11:14.043Z,1003.67
2022-11-05T11:12:14.033Z,1003.72
2022-11-05T11:13:14.195Z,1003.74
2022-11-05T11:14:14.049Z,1003.73
2022-11-05T11:15:14.058Z,1003.72
2022-11-05T11:16:14.049Z,1003.72
2022-11-05T11:17:13.992Z,1003.72
2022-11-05T11:18:13.964Z,1003.68
2022-11-05T11:19:13.953Z,1003.75
2022-11-05T11:20:13.985Z,1003.70
2022-11-05T11:21:13.942Z,1003.64
2022-11-05T11:22:14.015Z,1003.66
2022-11-05T11:23:14.629Z,1003.63
2022-11-05T11:24:14.037Z,1003.63
2022-11-05T11:25:13.888Z,1003.63
2022-11-05T11:26:13.916Z,1003.60
2022-11-05T11:27:13.900Z,1003.57
2022-11-05T11:28:13.875Z,1003.54
2022-11-05T11:29:13.962Z,1003.58
2022-11-05T11:30:13.840Z,1003.59
2022-11-05T11:31:13.882Z,1003.60
2022-11-05T11:32:13.825Z,1003.57
2022-11-05T11:33:14.145Z,1003.60
2022-11-05T11:34:13.803Z,1003.56
2022-11-05T11:35:13.815Z,1003.56
2022-11-05T11:36:13.786Z,1003.55
2022-11-05T11:37:19.071Z,1003.55
2022-11-05T11:38:14.794Z,1003.54
2022-11-05T11:39:13.748Z,1003.52
2022-11-05T11:40:13.748Z,1003.48
2022-11-05T11:41:13.712Z,1003.56
2022-11-05T11:42:13.754Z,1003.54
2022-11-05T11:43:14.003Z,1003.53
2022-11-05T11:44:13.759Z,1003.52
2022-11-05T11:45:13.704Z,1003.55
2022-11-05T11:46:15.122Z,1003.55
2022-11-05T11:47:13.692Z,1003.54
2022-11-05T11:48:13.690Z,1003.55
2022-11-05T11:49:13.655Z,1003.60
2022-11-05T11:50:13.648Z,1003.57
2022-11-05T11:51:13.748Z,1003.63
2022-11-05T11:52:13.617Z,1003.55
2022-11-05T11:53:13.840Z,1003.53
2022-11-05T11:54:13.605Z,1003.56
2022-11-05T11:55:13.569Z,1003.53
2022-11-05T11:56:13.603Z,1003.58
2022-11-05T11:57:15.242Z,1003.55
2022-11-05T11:58:13.534Z,1003.55
2022-11-05T11:59:13.546Z,1003.53
2022-11-05T12:00:13.778Z,1003.53
2022-11-05T12:01:13.694Z,1003.55
2022-11-05T12:02:13.865Z,1003.53
2022-11-05T12:03:13.892Z,1003.54
2022-11-05T12:04:13.697Z,1003.51
2022-11-05T12:05:13.602Z,1003.53
2022-11-05T12:06:14.595Z,1003.50
2022-11-05T12:07:13.634Z,1003.55
2022-11-05T12:08:13.479Z,1003.53
2022-11-05T12:09:13.545Z,1003.54
2022-11-05T12:10:13.487Z,1003.54
2022-11-05T12:11:13.396Z,1003.51
2022-11-05T12:12:13.387Z,1003.53
2022-11-05T12:13:13.565Z,1003.51
2022-11-05T12:14:13.383Z,1003.65
2022-11-05T12:15:13.373Z,1003.63
2022-11-05T12:16:13.345Z,1003.58
2022-11-05T12:17:13.339Z,1003.57
2022-11-05T12:18:13.365Z,1003.65
2022-11-05T12:19:13.324Z,1003.64
2022-11-05T12:20:13.999Z,1003.64
2022-11-05T12:21:13.360Z,1003.61
2022-11-05T12:22:13.313Z,1003.61
2022-11-05T12:23:13.875Z,1003.60
2022-11-05T12:24:13.317Z,1003.62
2022-11-05T12:25:13.314Z,1003.61
2022-11-05T12:26:13.243Z,1003.63
2022-11-05T12:30:23.236Z,1003.63
2022-11-05T12:31:23.206Z,1003.56
2022-11-05T12:32:23.255Z,1003.57
2022-11-05T12:33:23.203Z,1003.54
2022-11-05T12:34:23.203Z,1003.59
2022-11-05T12:35:23.194Z,1003.56
2022-11-05T12:36:23.152Z,1003.53
2022-11-05T12:37:23.172Z,1003.55
2022-11-05T12:38:23.158Z,1003.57
2022-11-05T12:39:23.150Z,1003.51
2022-11-05T12:40:23.119Z,1003.54
2022-11-05T12:41:23.094Z,1003.58
2022-11-05T12:42:23.117Z,1003.57
2022-11-05T12:43:23.066Z,1003.61
2022-11-05T12:44:23.098Z,1003.61
2022-11-05T12:45:23.075Z,1003.60
2022-11-05T12:46:23.070Z,1003.56
2022-11-05T12:47:23.042Z,1003.58
2022-11-05T12:48:28.244Z,1003.63
2022-11-05T12:49:24.020Z,1003.59
2022-11-05T12:50:23.025Z,1003.60
2022-11-05T12:51:23.068Z,1003.57
2022-11-05T12:52:22.968Z,1003.58
2022-11-05T12:53:22.976Z,1003.49
2022-11-05T12:54:22.946Z,1003.58
2022-11-05T12:55:22.971Z,1003.54
2022-11-05T12:56:22.981Z,1003.57
2022-11-05T12:57:22.918Z,1003.50
2022-11-05T12:58:22.949Z,1003.52
2022-11-05T12:59:22.920Z,1003.49
2022-11-05T13:00:22.885Z,1003.50
2022-11-05T13:01:23.004Z,1003.54
2022-11-05T13:02:22.980Z,1003.52
2022-11-05T13:03:22.862Z,1003.47
2022-11-05T13:04:22.860Z,1003.44
2022-11-05T13:05:22.836Z,1003.46
2022-11-05T13:06:22.871Z,1003.41
2022-11-05T13:07:22.835Z,1003.45
2022-11-05T13:08:22.824Z,1003.45
2022-11-05T13:09:22.790Z,1003.46
2022-11-05T13:10:22.782Z,1003.50
2022-11-05T13:11:22.863Z,1003.44
2022-11-05T13:12:22.772Z,1003.47
2022-11-05T13:13:22.746Z,1003.41
2022-11-05T13:14:22.738Z,1003.34
2022-11-05T13:15:22.718Z,1003.35
2022-11-05T13:16:22.770Z,1003.39
2022-11-05T13:17:22.697Z,1003.34
2022-11-05T13:18:22.690Z,1003.37
2022-11-05T13:19:22.715Z,1003.40
2022-11-05T13:20:22.674Z,1003.40
2022-11-05T13:21:22.670Z,1003.41
2022-11-05T13:22:22.647Z,1003.40
2022-11-05T13:23:22.627Z,1003.42
2022-11-05T13:24:22.626Z,1003.40
2022-11-05T13:25:22.639Z,1003.39
2022-11-05T13:26:22.633Z,1003.38
2022-11-05T13:27:22.587Z,1003.39
2022-11-05T13:28:22.595Z,1003.33
2022-11-05T13:29:22.584Z,1003.32
2022-11-05T13:30:22.554Z,1003.35
2022-11-05T13:31:22.550Z,1003.31
2022-11-05T13:32:22.564Z,1003.31
2022-11-05T13:33:22.561Z,1003.32
2022-11-05T13:34:22.535Z,1003.31
2022-11-05T13:35:22.494Z,1003.28
2022-11-05T13:36:22.513Z,1003.28
2022-11-05T13:37:22.531Z,1003.32
2022-11-05T13:38:22.464Z,1003.31
2022-11-05T13:39:22.471Z,1003.31
2022-11-05T13:40:22.465Z,1003.29
2022-11-05T13:41:22.440Z,1003.28
2022-11-05T13:42:22.417Z,1003.28
2022-11-05T13:43:22.549Z,1003.25
2022-11-05T13:44:22.405Z,1003.27
2022-11-05T13:45:22.401Z,1003.28
2022-11-05T13:46:22.382Z,1003.28
2022-11-05T13:47:22.377Z,1003.26
2022-11-05T13:48:22.362Z,1003.23
2022-11-05T13:49:22.355Z,1003.22
2022-11-05T13:50:22.336Z,1003.25
2022-11-05T13:51:22.344Z,1003.26
2022-11-05T13:52:22.381Z,1003.27
2022-11-05T13:53:22.302Z,1003.29
2022-11-05T13:54:22.331Z,1003.27
2022-11-05T13:55:22.306Z,1003.26
2022-11-05T13:56:22.273Z,1003.28
2022-11-05T13:57:22.252Z,1003.30
2022-11-05T13:58:22.244Z,1003.30
2022-11-05T13:59:22.287Z,1003.30
2022-11-05T14:00:22.230Z,1003.29
2022-11-05T14:01:22.294Z,1003.30
2022-11-05T14:02:22.413Z,1003.30
2022-11-05T14:03:22.265Z,1003.30
2022-11-05T14:04:22.185Z,1003.30
2022-11-05T14:05:22.200Z,1003.22
2022-11-05T14:06:22.166Z,1003.22
2022-11-05T14:07:22.138Z,1003.22
2022-11-05T14:08:22.154Z,1003.17
2022-11-05T14:09:22.144Z,1003.18
2022-11-05T14:10:22.116Z,1003.14
2022-11-05T14:11:22.095Z,1003.09
2022-11-05T14:12:22.118Z,1003.08
2022-11-05T14:13:22.116Z,1003.07
2022-11-05T14:14:22.067Z,1003.06
2022-11-05T14:15:22.097Z,1003.04
2022-11-05T14:16:22.047Z,1003.06
2022-11-05T14:17:22.055Z,1003.07
2022-11-05T14:18:22.072Z,1003.03
2022-11-05T14:19:22.005Z,1003.09
2022-11-05T14:20:21.993Z,1003.07
2022-11-05T14:21:22.019Z,1003.13
2022-11-05T14:22:21.979Z,1003.10
2022-11-05T14:23:21.977Z,1003.10
2022-11-05T14:24:22.009Z,1003.11
2022-11-05T14:25:21.942Z,1003.11
2022-11-05T14:26:21.932Z,1003.09
2022-11-05T14:27:21.958Z,1003.02
2022-11-05T14:28:21.913Z,1003.07
2022-11-05T14:29:21.896Z,1003.08
2022-11-05T14:30:21.902Z,1003.03
2022-11-05T14:31:25.199Z,1002.97
2022-11-05T14:32:22.886Z,1002.95
2022-11-05T14:33:21.873Z,1002.97
2022-11-05T14:34:21.842Z,1002.89
2022-11-05T14:35:21.836Z,1002.90
2022-11-05T14:36:21.856Z,1002.84
2022-11-05T14:37:21.877Z,1002.84
2022-11-05T14:38:21.805Z,1002.88
2022-11-05T14:39:21.796Z,1002.83
2022-11-05T14:40:21.810Z,1002.79
2022-11-05T14:41:21.768Z,1002.87
2022-11-05T14:42:21.759Z,1002.82
2022-11-05T14:43:21.765Z,1002.80
2022-11-05T14:44:21.760Z,1002.77
2022-11-05T14:45:21.725Z,1002.76
2022-11-05T14:46:21.717Z,1002.80
2022-11-05T14:47:21.724Z,1002.80
2022-11-05T14:48:21.706Z,1002.78
2022-11-05T14:49:21.685Z,1002.81
2022-11-05T14:50:21.726Z,1002.76
2022-11-05T14:51:21.654Z,1002.77
2022-11-05T14:52:21.649Z,1002.77
2022-11-05T14:53:21.671Z,1002.77
2022-11-05T14:54:21.627Z,1002.78
2022-11-05T14:55:21.640Z,1002.82
2022-11-05T14:56:21.625Z,1002.83
2022-11-05T14:57:21.600Z,1002.83
2022-11-05T14:58:21.587Z,1002.83
2022-11-05T14:59:21.571Z,1002.83
2022-11-05T15:00:21.560Z,1002.84
2022-11-05T15:01:21.651Z,1002.84
2022-11-05T15:02:21.800Z,1002.85
2022-11-05T15:03:21.589Z,1002.86
2022-11-05T15:04:22.268Z,1002.86
2022-11-05T15:05:21.509Z,1002.82
2022-11-05T15:06:21.502Z,1002.82
2022-11-05T15:07:21.494Z,1002.83
2022-11-05T15:08:21.516Z,1002.84
2022-11-05T15:09:21.473Z,1002.85
2022-11-05T15:10:21.454Z,1002.85
2022-11-05T15:11:21.439Z,1002.82
2022-11-05T15:12:21.452Z,1002.84
2022-11-05T15:13:21.432Z,1002.80
2022-11-05T15:14:21.439Z,1002.82
2022-11-05T15:15:22.144Z,1002.80
2022-11-05T15:16:21.383Z,1002.82
2022-11-05T15:17:21.376Z,1002.82
2022-11-05T15:18:21.391Z,1002.81
2022-11-05T15:19:21.361Z,1002.85
2022-11-05T15:20:21.388Z,1002.90
2022-11-05T15:21:21.364Z,1002.86
2022-11-05T15:22:21.341Z,1002.93
2022-11-05T15:23:21.336Z,1002.96
2022-11-05T15:24:21.312Z,1002.93
2022-11-05T15:25:21.283Z,1002.94
2022-11-05T15:26:21.306Z,1003.04
2022-11-05T15:27:21.266Z,1002.97
2022-11-05T15:28:21.274Z,1003.03
2022-11-05T15:29:21.267Z,1003.04
2022-11-05T15:30:21.223Z,1003.03
2022-11-05T15:31:21.238Z,1003.01
2022-11-05T15:32:21.206Z,1003.00
2022-11-05T15:33:21.217Z,1003.05
2022-11-05T15:34:21.196Z,1002.99
2022-11-05T15:35:21.284Z,1003.03
2022-11-05T15:36:21.160Z,1003.05
2022-11-05T15:37:21.168Z,1002.97
2022-11-05T15:38:21.168Z,1003.02
2022-11-05T15:39:29.526Z,1003.05
2022-11-05T15:40:22.146Z,1003.07
2022-11-05T15:41:21.114Z,1003.05
2022-11-05T15:42:21.109Z,1003.09
2022-11-05T15:43:21.093Z,1003.04
2022-11-05T15:44:21.095Z,1003.09
2022-11-05T15:45:21.093Z,1003.08
2022-11-05T15:46:21.053Z,1003.08
2022-11-05T15:47:21.075Z,1003.06
2022-11-05T15:48:21.035Z,1003.08
2022-11-05T15:49:21.025Z,1003.10
2022-11-05T15:50:21.033Z,1003.12
2022-11-05T15:51:21.017Z,1003.10
2022-11-05T15:52:21.003Z,1003.14
2022-11-05T15:53:44.328Z,1003.15
2022-11-05T15:54:30.092Z,1003.16
2022-11-05T15:55:21.984Z,1003.23
2022-11-05T15:56:20.959Z,1003.27
2022-11-05T15:57:20.997Z,1003.25
2022-11-05T15:58:20.970Z,1003.25
2022-11-05T15:59:20.913Z,1003.18
2022-11-05T16:00:20.960Z,1003.16
2022-11-05T16:01:20.986Z,1003.19
2022-11-05T16:02:21.004Z,1003.17
2022-11-05T16:03:20.885Z,1003.16
2022-11-05T16:04:20.863Z,1003.17
2022-11-05T16:05:21.008Z,1003.20
2022-11-05T16:06:20.864Z,1003.24
2022-11-05T16:07:20.937Z,1003.17
2022-11-05T16:08:20.822Z,1003.19
2022-11-05T16:09:20.808Z,1003.16
2022-11-05T16:10:20.797Z,1003.20
2022-11-05T16:11:20.818Z,1003.16
2022-11-05T16:12:20.770Z,1003.18
2022-11-05T16:13:20.763Z,1003.21
2022-11-05T16:14:20.753Z,1003.18
2022-11-05T16:15:20.736Z,1003.22
2022-11-05T16:16:20.764Z,1003.21
2022-11-05T16:17:20.770Z,1003.19
2022-11-05T16:18:20.722Z,1003.19
2022-11-05T16:19:20.707Z,1003.13
2022-11-05T16:20:20.706Z,1003.17
2022-11-05T16:21:20.682Z,1003.23
2022-11-05T16:22:20.673Z,1003.27
2022-11-05T16:23:20.709Z,1003.22
2022-11-05T16:24:23.042Z,1003.25
2022-11-05T16:25:21.634Z,1003.28
2022-11-05T16:26:41.227Z,1003.28
2022-11-05T16:27:21.615Z,1003.32
2022-11-05T16:28:20.601Z,1003.30
2022-11-05T16:29:20.639Z,1003.29
2022-11-05T16:30:20.585Z,1003.24
2022-11-05T16:31:20.601Z,1003.25
2022-11-05T16:32:23.094Z,1003.24
2022-11-05T16:33:21.560Z,1003.31
2022-11-05T16:34:20.526Z,1003.28
2022-11-05T16:35:20.546Z,1003.28
2022-11-05T16:36:20.503Z,1003.28
2022-11-05T16:37:20.541Z,1003.27
2022-11-05T16:38:20.498Z,1003.27
2022-11-05T16:39:20.494Z,1003.19
2022-11-05T16:40:20.502Z,1003.22
2022-11-05T16:41:20.464Z,1003.25
2022-11-05T16:42:20.442Z,1003.23
2022-11-05T16:43:20.462Z,1003.24
2022-11-05T16:44:20.415Z,1003.25
2022-11-05T16:45:20.468Z,1003.24
2022-11-05T16:46:20.402Z,1003.25
2022-11-05T16:47:20.418Z,1003.28
2022-11-05T16:48:20.384Z,1003.18
2022-11-05T16:49:20.399Z,1003.16
2022-11-05T16:50:20.390Z,1003.22
2022-11-05T16:51:26.274Z,1003.26
2022-11-05T16:52:21.328Z,1003.23
2022-11-05T16:53:20.382Z,1003.24
2022-11-05T16:54:20.321Z,1003.24
2022-11-05T16:55:20.313Z,1003.21
2022-11-05T16:56:20.310Z,1003.23
2022-11-05T16:57:20.302Z,1003.28
2022-11-05T16:58:20.290Z,1003.28
2022-11-05T16:59:20.266Z,1003.28
2022-11-05T17:00:20.275Z,1003.31
2022-11-05T17:01:20.369Z,1003.32
2022-11-05T17:02:20.412Z,1003.37
2022-11-05T17:03:20.219Z,1003.34
2022-11-05T17:04:20.223Z,1003.32
2022-11-05T17:05:20.202Z,1003.37
2022-11-05T17:06:20.181Z,1003.37
2022-11-05T17:07:20.202Z,1003.33
2022-11-05T17:08:20.157Z,1003.39
2022-11-05T17:09:20.220Z,1003.34
2022-11-05T17:10:20.186Z,1003.35
2022-11-05T17:11:20.158Z,1003.36
2022-11-05T17:12:20.140Z,1003.36
2022-11-05T17:13:20.323Z,1003.34
2022-11-05T17:14:20.138Z,1003.33
2022-11-05T17:15:20.113Z,1003.36
2022-11-05T17:16:20.122Z,1003.35
2022-11-05T17:17:20.127Z,1003.40
2022-11-05T17:18:20.387Z,1003.38
2022-11-05T17:19:20.038Z,1003.40
2022-11-05T17:20:20.041Z,1003.43
2022-11-05T17:21:20.090Z,1003.42
2022-11-05T17:22:19.999Z,1003.39
2022-11-05T17:23:20.012Z,1003.39
2022-11-05T17:24:19.984Z,1003.41
2022-11-05T17:25:19.977Z,1003.40
2022-11-05T17:26:19.959Z,1003.40
2022-11-05T17:27:19.990Z,1003.40
2022-11-05T17:28:20.032Z,1003.38
2022-11-05T17:29:20.025Z,1003.44
2022-11-05T17:30:19.968Z,1003.44
2022-11-05T17:31:19.924Z,1003.46
2022-11-05T17:32:19.960Z,1003.45
2022-11-05T17:33:19.970Z,1003.46
2022-11-05T17:34:19.874Z,1003.43
2022-11-05T17:35:19.901Z,1003.42
2022-11-05T17:36:19.859Z,1003.40
2022-11-05T17:37:19.837Z,1003.42
2022-11-05T17:38:19.828Z,1003.44
2022-11-05T17:39:19.847Z,1003.41
2022-11-05T17:40:19.840Z,1003.36
2022-11-05T17:41:19.794Z,1003.43
2022-11-05T17:42:19.784Z,1003.39
2022-11-05T17:43:19.794Z,1003.38
2022-11-05T17:44:19.775Z,1003.30
2022-11-05T17:45:19.762Z,1003.33
2022-11-05T17:46:19.762Z,1003.32
2022-11-05T17:47:19.759Z,1003.31
2022-11-05T17:48:19.728Z,1003.31
2022-11-05T17:49:19.885Z,1003.33
2022-11-05T17:50:19.707Z,1003.36
2022-11-05T17:51:19.706Z,1003.36
2022-11-05T17:52:19.718Z,1003.33
2022-11-05T17:53:19.693Z,1003.40
2022-11-05T17:54:19.664Z,1003.41
2022-11-05T17:55:19.666Z,1003.36
2022-11-05T17:56:27.633Z,1003.36